Time;durP1;ratioP1;P1;durP2;ratioP2;P2;SDS_P1;SDS_P2;PMS_P1;PMS_P2;Temp;Humidity;BMP_temperature;BMP_pressure;BME280_temperature;BME280_humidity;BME280_pressure;Samples;Min_cycle;Max_cycle;Signal;HPM_P1;HPM_P2
2023/04/07 00:02:03;;;;;;;17.42;10.40;;;7.00;69.70;;;;;;5096565;28;20108;-73
2023/04/07 00:04:28;;;;;;;16.95;11.35;;;6.90;69.90;;;;;;5096314;28;20064;-74
2023/04/07 00:06:56;;;;;;;16.30;11.32;;;6.90;70.20;;;;;;5096318;28;20095;-74
2023/04/07 00:09:22;;;;;;;15.23;10.93;;;6.80;70.60;;;;;;5096689;28;20035;-75
2023/04/07 00:11:47;;;;;;;14.23;10.00;;;6.80;70.70;;;;;;5096290;28;20032;-75
2023/04/07 00:14:13;;;;;;;18.77;11.13;;;6.80;70.70;;;;;;5096365;28;20028;-76
2023/04/07 00:16:39;;;;;;;15.50;9.80;;;6.80;70.60;;;;;;5096203;28;20027;-74
2023/04/07 00:19:05;;;;;;;14.00;10.65;;;6.80;70.60;;;;;;5096938;28;20028;-75
2023/04/07 00:21:30;;;;;;;17.15;11.52;;;6.90;70.60;;;;;;5096041;28;20024;-74
2023/04/07 00:23:56;;;;;;;15.75;10.35;;;6.80;70.40;;;;;;5095967;28;20024;-74
2023/04/07 00:26:22;;;;;;;17.65;10.55;;;6.80;70.30;;;;;;5096282;28;20066;-74
2023/04/07 00:28:47;;;;;;;14.30;10.85;;;6.80;70.40;;;;;;5096637;28;20036;-73
2023/04/07 00:31:13;;;;;;;15.73;11.15;;;6.90;70.50;;;;;;5096057;28;20392;-74
2023/04/07 00:33:39;;;;;;;16.23;11.05;;;6.90;70.30;;;;;;5095775;28;20492;-73
2023/04/07 00:36:05;;;;;;;16.15;11.43;;;6.90;70.20;;;;;;5095764;28;20108;-73
2023/04/07 00:38:33;;;;;;;16.10;10.43;;;6.90;70.20;;;;;;5095801;28;20468;-74
2023/04/07 00:40:59;;;;;;;16.48;10.43;;;7.00;69.90;;;;;;5094892;28;20408;-75
2023/04/07 00:43:25;;;;;;;15.27;10.45;;;7.00;69.80;;;;;;5095708;28;20039;-73
2023/04/07 00:45:52;;;;;;;13.98;10.45;;;7.00;69.70;;;;;;5095985;28;20094;-76
2023/04/07 00:48:17;;;;;;;16.10;11.18;;;7.00;69.40;;;;;;5095749;28;20063;-73
2023/04/07 00:50:45;;;;;;;19.35;11.13;;;7.00;69.20;;;;;;5096430;28;20024;-73
2023/04/07 00:53:11;;;;;;;14.82;10.10;;;7.00;69.10;;;;;;5095368;28;20035;-76
2023/04/07 00:55:37;;;;;;;17.92;11.50;;;7.10;69.00;;;;;;5080687;28;20039;-75
2023/04/07 00:58:06;;;;;;;17.58;11.32;;;7.10;68.90;;;;;;5075681;28;20017;-74
2023/04/07 01:00:37;;;;;;;20.70;12.13;;;7.10;68.90;;;;;;5076813;28;20024;-74
2023/04/07 01:03:10;;;;;;;15.55;10.82;;;7.00;68.90;;;;;;5075362;28;20031;-74
2023/04/07 01:05:45;;;;;;;12.95;10.25;;;7.00;69.20;;;;;;5075611;28;20070;-74
2023/04/07 01:08:22;;;;;;;14.20;10.43;;;7.00;69.20;;;;;;5075096;28;20021;-74
2023/04/07 01:11:02;;;;;;;16.85;11.57;;;7.00;69.30;;;;;;5075562;28;20027;-73
2023/04/07 01:13:33;;;;;;;15.73;11.18;;;7.00;69.20;;;;;;5074940;28;20044;-74
2023/04/07 01:16:03;;;;;;;18.23;11.77;;;7.00;69.40;;;;;;5074863;28;20106;-73
2023/04/07 01:18:33;;;;;;;16.63;10.88;;;7.00;69.20;;;;;;5075282;28;20086;-75
2023/04/07 01:21:05;;;;;;;15.85;11.13;;;7.00;69.10;;;;;;5074793;28;20020;-74
2023/04/07 01:24:25;;;;;;;16.05;11.50;;;7.00;69.00;;;;;;5074623;28;20503;-74
2023/04/07 01:26:51;;;;;;;15.48;11.38;;;7.00;68.90;;;;;;5052473;28;20033;-74
2023/04/07 01:29:40;;;;;;;15.18;11.23;;;7.00;68.90;;;;;;5070694;28;20056;-74
2023/04/07 01:32:10;;;;;;;15.23;11.23;;;7.00;68.90;;;;;;5074446;28;20547;-74
2023/04/07 01:34:37;;;;;;;15.50;11.15;;;7.00;68.90;;;;;;5074446;28;20037;-73
2023/04/07 01:37:05;;;;;;;15.95;10.93;;;7.00;68.80;;;;;;5074325;28;20012;-75
2023/04/07 01:39:32;;;;;;;16.08;10.82;;;7.10;68.70;;;;;;5074836;28;20493;-74
2023/04/07 01:42:01;;;;;;;18.77;11.80;;;7.10;68.90;;;;;;5074378;28;20024;-75
2023/04/07 01:44:27;;;;;;;17.10;11.60;;;7.00;68.70;;;;;;5073013;28;20025;-75
2023/04/07 01:46:54;;;;;;;14.63;10.43;;;7.00;68.70;;;;;;5074272;28;20123;-74
2023/04/07 01:49:20;;;;;;;17.15;11.65;;;7.00;68.80;;;;;;5074832;28;20078;-76
2023/04/07 01:51:49;;;;;;;16.00;11.48;;;7.00;68.60;;;;;;5073888;28;20023;-74
2023/04/07 01:54:16;;;;;;;16.85;11.02;;;7.00;68.50;;;;;;5074155;28;20479;-73
2023/04/07 01:56:43;;;;;;;15.52;11.57;;;6.90;68.70;;;;;;5074244;28;20021;-74
2023/04/07 01:59:09;;;;;;;14.77;11.20;;;7.00;68.70;;;;;;5074592;28;20031;-75
2023/04/07 02:01:35;;;;;;;15.43;11.68;;;7.00;68.50;;;;;;5074046;28;20020;-75
2023/04/07 02:04:27;;;;;;;17.10;12.23;;;6.90;68.70;;;;;;5072657;28;20028;-75
2023/04/07 02:07:07;;;;;;;18.05;11.68;;;6.90;68.80;;;;;;5073998;28;20024;-75
2023/04/07 02:09:39;;;;;;;17.40;12.10;;;6.90;68.90;;;;;;5074485;28;20495;-75
2023/04/07 02:12:07;;;;;;;14.82;11.27;;;6.80;69.00;;;;;;5074006;28;20024;-75
2023/04/07 02:14:35;;;;;;;20.02;12.63;;;6.80;69.00;;;;;;5073811;28;20035;-75
2023/04/07 02:17:02;;;;;;;16.20;11.32;;;6.80;68.90;;;;;;5073673;28;20024;-75
2023/04/07 02:19:29;;;;;;;17.17;12.00;;;6.80;68.90;;;;;;5086178;28;20043;-74
2023/04/07 02:21:55;;;;;;;17.27;12.32;;;6.60;69.80;;;;;;5093814;28;20017;-75
2023/04/07 02:24:21;;;;;;;17.95;11.73;;;6.60;69.60;;;;;;5093378;28;20457;-75
2023/04/07 02:26:46;;;;;;;16.80;12.13;;;6.60;69.90;;;;;;5093739;28;20032;-75
2023/04/07 02:29:12;;;;;;;16.83;11.77;;;6.60;70.10;;;;;;5094462;28;20023;-75
2023/04/07 02:31:38;;;;;;;21.73;13.00;;;6.50;70.10;;;;;;5093735;28;20073;-75
2023/04/07 02:34:04;;;;;;;18.38;12.50;;;6.50;70.10;;;;;;5092323;28;20082;-75
2023/04/07 02:36:30;;;;;;;17.38;11.55;;;6.60;69.90;;;;;;5093536;28;20073;-75
2023/04/07 02:38:55;;;;;;;17.65;11.43;;;6.60;69.40;;;;;;5093991;28;20108;-75
2023/04/07 02:41:21;;;;;;;18.67;11.93;;;6.70;69.40;;;;;;5093529;28;20055;-75
2023/04/07 02:43:47;;;;;;;14.60;10.40;;;6.80;69.00;;;;;;5093324;28;20507;-75
2023/04/07 02:46:12;;;;;;;16.25;10.13;;;6.80;68.40;;;;;;5093705;28;20016;-75
2023/04/07 02:48:38;;;;;;;14.60;9.95;;;6.90;68.20;;;;;;5093626;28;20384;-75
2023/04/07 02:51:04;;;;;;;13.75;9.85;;;6.90;68.00;;;;;;5093419;28;20024;-74
2023/04/07 02:53:29;;;;;;;13.50;9.73;;;6.90;67.50;;;;;;5093295;28;20032;-75
2023/04/07 02:55:55;;;;;;;14.13;8.50;;;6.90;67.50;;;;;;5093579;28;20465;-74
2023/04/07 02:58:21;;;;;;;13.52;9.80;;;6.80;67.20;;;;;;5093580;28;20024;-74
2023/04/07 03:00:48;;;;;;;15.80;9.95;;;6.90;67.00;;;;;;5093930;28;20028;-75
2023/04/07 03:03:13;;;;;;;17.33;10.10;;;6.90;67.20;;;;;;5091719;28;20028;-75
2023/04/07 03:05:39;;;;;;;12.48;9.93;;;6.90;67.50;;;;;;5093463;28;20089;-75
2023/04/07 03:08:05;;;;;;;16.95;10.48;;;6.90;67.50;;;;;;5093806;28;20497;-75
2023/04/07 03:10:30;;;;;;;15.27;9.38;;;6.90;67.40;;;;;;5094397;28;20012;-76
2023/04/07 03:12:56;;;;;;;12.13;8.80;;;6.90;67.20;;;;;;5093179;28;20024;-74
2023/04/07 03:15:22;;;;;;;15.15;9.73;;;6.90;67.20;;;;;;5093099;28;20024;-74
2023/04/07 03:17:47;;;;;;;13.35;9.15;;;7.00;67.30;;;;;;5093055;28;20032;-74
2023/04/07 03:20:13;;;;;;;13.70;8.98;;;7.00;67.00;;;;;;5094017;28;20024;-74
2023/04/07 03:22:38;;;;;;;13.52;9.50;;;7.00;67.00;;;;;;5098738;28;20026;-75
2023/04/07 03:25:04;;;;;;;16.75;9.90;;;7.10;67.10;;;;;;5102898;28;20031;-73
2023/04/07 03:27:30;;;;;;;28.40;16.55;;;7.00;66.70;;;;;;5100813;28;20028;-73
2023/04/07 03:29:56;;;;;;;16.13;10.95;;;7.00;66.90;;;;;;5102551;28;20496;-75
2023/04/07 03:32:22;;;;;;;13.85;9.88;;;6.90;67.00;;;;;;5102860;28;20028;-75
2023/04/07 03:34:47;;;;;;;14.82;10.15;;;6.80;67.50;;;;;;5101705;28;20046;-75
2023/04/07 03:37:13;;;;;;;16.10;10.50;;;6.80;67.60;;;;;;5098657;28;20081;-75
2023/04/07 03:39:39;;;;;;;40.28;22.35;;;6.80;67.70;;;;;;5093614;28;20082;-75
2023/04/07 03:42:05;;;;;;;24.38;14.85;;;6.70;68.00;;;;;;5092840;28;20509;-75
2023/04/07 03:44:31;;;;;;;26.55;16.13;;;6.70;68.20;;;;;;5092953;28;20032;-74
2023/04/07 03:46:57;;;;;;;21.42;12.68;;;6.70;68.30;;;;;;5092958;28;20017;-74
2023/04/07 03:49:22;;;;;;;18.15;10.93;;;6.70;68.20;;;;;;5093635;28;20024;-73
2023/04/07 03:51:48;;;;;;;16.08;10.98;;;6.70;68.30;;;;;;5092870;28;20449;-75
2023/04/07 03:54:14;;;;;;;14.27;10.02;;;6.70;68.60;;;;;;5091558;28;20043;-75
2023/04/07 03:56:40;;;;;;;13.73;9.50;;;6.70;68.70;;;;;;5092525;28;20449;-75
2023/04/07 03:59:05;;;;;;;14.20;9.93;;;6.70;68.70;;;;;;5093408;28;20028;-74
2023/04/07 04:01:31;;;;;;;13.93;9.77;;;6.60;68.90;;;;;;5092835;28;20095;-73
2023/04/07 04:03:56;;;;;;;15.00;9.07;;;6.70;69.20;;;;;;5092668;28;20093;-74
2023/04/07 04:06:22;;;;;;;11.98;8.93;;;6.60;69.40;;;;;;5092620;28;20433;-74
2023/04/07 04:08:47;;;;;;;13.13;8.52;;;6.60;69.60;;;;;;5093493;28;20047;-74
2023/04/07 04:11:13;;;;;;;14.82;9.20;;;6.50;70.00;;;;;;5092562;28;20036;-73
2023/04/07 04:13:39;;;;;;;15.07;9.75;;;6.50;70.00;;;;;;5093313;28;20115;-74
2023/04/07 04:16:05;;;;;;;10.40;8.13;;;6.50;69.90;;;;;;5096155;28;20043;-74
2023/04/07 04:18:31;;;;;;;11.50;8.10;;;6.60;69.90;;;;;;5095433;28;20031;-73
2023/04/07 04:20:57;;;;;;;13.30;8.95;;;6.60;69.90;;;;;;5096456;28;20020;-75
2023/04/07 04:23:22;;;;;;;14.80;9.88;;;6.70;69.80;;;;;;5096047;28;20476;-76
2023/04/07 04:25:48;;;;;;;13.93;8.98;;;6.70;69.50;;;;;;5096216;28;20035;-74
2023/04/07 04:28:13;;;;;;;14.27;9.23;;;6.70;69.70;;;;;;5096051;28;20031;-74
2023/04/07 04:30:39;;;;;;;11.93;8.77;;;6.60;69.50;;;;;;5096664;28;20030;-74
2023/04/07 04:33:06;;;;;;;14.05;9.65;;;6.70;69.60;;;;;;5094676;28;20122;-74
2023/04/07 04:35:32;;;;;;;14.52;9.70;;;6.70;69.60;;;;;;5096001;28;20099;-75
2023/04/07 04:37:58;;;;;;;14.65;10.18;;;6.70;69.30;;;;;;5095748;28;20433;-75
2023/04/07 04:40:23;;;;;;;16.00;9.75;;;6.70;69.20;;;;;;5096275;28;20051;-75
2023/04/07 04:42:49;;;;;;;13.18;9.57;;;6.60;69.70;;;;;;5095874;28;20031;-74
2023/04/07 04:45:15;;;;;;;15.60;10.07;;;6.50;70.30;;;;;;5095734;28;20031;-74
2023/04/07 04:47:42;;;;;;;19.20;10.38;;;6.40;71.00;;;;;;5095640;28;20474;-74
2023/04/07 04:50:08;;;;;;;14.05;10.40;;;6.40;71.20;;;;;;5096588;28;20097;-76
2023/04/07 04:52:34;;;;;;;13.50;9.02;;;6.30;71.30;;;;;;5095603;28;20016;-75
2023/04/07 04:55:00;;;;;;;18.38;11.02;;;6.40;71.20;;;;;;5095448;28;20036;-75
2023/04/07 04:57:25;;;;;;;17.55;11.93;;;6.40;71.30;;;;;;5095459;28;20024;-76
2023/04/07 04:59:51;;;;;;;17.67;11.88;;;6.30;71.50;;;;;;5094777;28;20024;-76
2023/04/07 05:02:17;;;;;;;13.55;10.18;;;6.30;71.70;;;;;;5094201;28;20487;-74
2023/04/07 05:04:42;;;;;;;14.77;10.18;;;6.30;72.00;;;;;;5093895;28;20031;-74
2023/04/07 05:07:08;;;;;;;14.10;10.90;;;6.10;72.10;;;;;;5095244;28;20384;-75
2023/04/07 05:09:33;;;;;;;15.57;10.68;;;6.10;72.60;;;;;;5096249;28;20054;-74
2023/04/07 05:12:00;;;;;;;19.85;11.27;;;6.00;73.20;;;;;;5095212;28;20021;-74
2023/04/07 05:14:26;;;;;;;13.95;10.20;;;6.00;73.50;;;;;;5095302;28;20032;-74
2023/04/07 05:16:53;;;;;;;17.17;10.80;;;6.00;73.80;;;;;;5095093;28;20028;-74
2023/04/07 05:19:18;;;;;;;15.63;10.35;;;6.00;73.90;;;;;;5095555;28;20089;-75
2023/04/07 05:21:44;;;;;;;13.65;10.05;;;6.00;73.80;;;;;;5094916;28;20024;-74
2023/04/07 05:24:10;;;;;;;15.32;10.88;;;6.00;73.60;;;;;;5094800;28;20091;-75
2023/04/07 05:26:38;;;;;;;14.40;10.55;;;6.10;73.50;;;;;;5094302;28;20054;-74
2023/04/07 05:29:03;;;;;;;16.20;11.45;;;6.20;73.50;;;;;;5094623;28;20392;-74
2023/04/07 05:31:29;;;;;;;15.50;10.82;;;6.20;73.40;;;;;;5093396;28;20031;-74
2023/04/07 05:33:55;;;;;;;17.48;10.45;;;6.30;73.20;;;;;;5094599;28;20039;-74
2023/04/07 05:36:21;;;;;;;16.73;11.27;;;6.30;73.00;;;;;;5094638;28;20016;-76
2023/04/07 05:38:46;;;;;;;15.85;10.93;;;6.40;72.50;;;;;;5094958;28;20020;-75
2023/04/07 05:41:12;;;;;;;15.73;10.13;;;6.40;72.80;;;;;;5094766;28;20035;-73
2023/04/07 05:43:37;;;;;;;17.65;12.55;;;6.50;72.90;;;;;;5093149;28;20034;-73
2023/04/07 05:46:03;;;;;;;16.65;11.50;;;6.50;72.90;;;;;;5094469;28;20032;-73
2023/04/07 05:48:29;;;;;;;17.88;11.57;;;6.50;72.80;;;;;;5094802;28;20447;-74
2023/04/07 05:50:54;;;;;;;19.33;11.15;;;6.50;72.50;;;;;;5095008;28;20086;-74
2023/04/07 05:53:21;;;;;;;16.05;10.15;;;6.60;72.10;;;;;;5094348;28;20032;-74
2023/04/07 05:55:47;;;;;;;13.63;9.07;;;6.60;71.60;;;;;;5094228;28;20426;-75
2023/04/07 05:58:12;;;;;;;15.35;10.25;;;6.60;71.00;;;;;;5094331;28;20020;-74
2023/04/07 06:00:39;;;;;;;18.25;10.60;;;6.50;71.60;;;;;;5093983;28;20404;-74
2023/04/07 06:03:05;;;;;;;14.35;10.13;;;6.60;71.90;;;;;;5094352;28;20032;-74
2023/04/07 06:05:31;;;;;;;16.38;10.15;;;6.80;71.70;;;;;;5094243;28;20028;-73
2023/04/07 06:07:56;;;;;;;17.77;11.30;;;6.80;71.70;;;;;;5093960;28;20365;-73
2023/04/07 06:10:22;;;;;;;16.92;11.38;;;6.80;71.50;;;;;;5094900;28;20020;-76
2023/04/07 06:12:47;;;;;;;17.98;11.57;;;6.80;71.40;;;;;;5093920;28;20060;-73
2023/04/07 06:15:13;;;;;;;17.20;11.40;;;6.70;71.70;;;;;;5093858;28;20070;-74
2023/04/07 06:17:38;;;;;;;15.00;11.02;;;6.70;71.90;;;;;;5092465;28;20016;-75
2023/04/07 06:20:05;;;;;;;15.05;10.77;;;6.70;72.20;;;;;;5094789;28;20066;-75
2023/04/07 06:22:30;;;;;;;16.17;11.07;;;6.70;72.00;;;;;;5093911;28;20016;-75
2023/04/07 06:24:56;;;;;;;18.98;10.32;;;6.70;72.00;;;;;;5093804;28;20020;-74
2023/04/07 06:27:21;;;;;;;14.65;10.60;;;6.80;71.40;;;;;;5093601;28;20081;-75
2023/04/07 06:29:47;;;;;;;16.23;10.55;;;6.90;70.90;;;;;;5094470;28;20069;-77
2023/04/07 06:32:13;;;;;;;14.68;10.15;;;7.00;70.30;;;;;;5093835;28;20032;-78
2023/04/07 06:34:38;;;;;;;15.13;9.68;;;7.00;70.00;;;;;;5092269;28;20488;-77
2023/04/07 06:37:05;;;;;;;13.70;9.88;;;7.00;69.40;;;;;;5092880;28;20059;-76
2023/04/07 06:39:31;;;;;;;13.90;10.40;;;6.90;69.90;;;;;;5093922;28;20066;-77
2023/04/07 06:41:57;;;;;;;15.43;10.02;;;6.90;70.40;;;;;;5093518;28;20376;-77
2023/04/07 06:44:22;;;;;;;14.88;10.95;;;6.90;70.30;;;;;;5093309;28;20020;-78
2023/04/07 06:46:51;;;;;;;17.38;11.05;;;7.00;70.10;;;;;;5093549;28;20024;-77
2023/04/07 06:49:18;;;;;;;16.60;10.52;;;7.00;70.10;;;;;;5093263;28;20065;-75
2023/04/07 06:51:43;;;;;;;19.67;14.02;;;7.00;70.00;;;;;;5093279;28;20504;-75
2023/04/07 06:54:12;;;;;;;17.55;11.57;;;7.10;69.90;;;;;;5092831;28;20127;-75
2023/04/07 06:56:42;;;;;;;17.05;10.38;;;7.20;69.60;;;;;;5093418;28;20128;-74
2023/04/07 06:59:10;;;;;;;14.25;10.25;;;7.40;69.10;;;;;;5094232;28;20024;-75
2023/04/07 07:01:36;;;;;;;14.20;9.48;;;7.50;68.60;;;;;;5093191;28;20065;-77
2023/04/07 07:04:02;;;;;;;14.52;10.07;;;7.60;67.90;;;;;;5093075;28;20028;-77
2023/04/07 07:06:28;;;;;;;15.95;9.82;;;7.70;67.80;;;;;;5092897;28;20119;-74
2023/04/07 07:08:54;;;;;;;14.30;9.30;;;7.90;67.20;;;;;;5093615;28;20055;-75
2023/04/07 07:11:19;;;;;;;11.50;8.40;;;8.20;66.40;;;;;;5092856;28;20024;-74
2023/04/07 07:13:45;;;;;;;15.05;8.52;;;8.30;65.50;;;;;;5092435;28;20042;-74
2023/04/07 07:16:14;;;;;;;13.00;8.15;;;8.60;64.80;;;;;;5091035;28;20021;-77
2023/04/07 07:18:40;;;;;;;10.52;7.00;;;8.80;64.20;;;;;;5093037;28;20051;-76
2023/04/07 07:21:05;;;;;;;14.40;7.47;;;9.10;63.00;;;;;;5093058;28;20027;-73
2023/04/07 07:23:31;;;;;;;11.07;7.75;;;9.30;61.50;;;;;;5092789;28;20383;-75
2023/04/07 07:25:56;;;;;;;10.35;6.90;;;9.40;61.00;;;;;;5092945;28;20027;-75
2023/04/07 07:28:22;;;;;;;9.18;5.97;;;9.60;60.40;;;;;;5091711;28;20076;-77
2023/04/07 07:30:48;;;;;;;8.82;5.20;;;9.80;59.40;;;;;;5093849;28;20028;-78
2023/04/07 07:33:14;;;;;;;6.65;5.10;;;9.90;58.80;;;;;;5092698;28;20496;-76
2023/04/07 07:35:40;;;;;;;7.20;4.55;;;9.90;57.70;;;;;;5092891;28;20020;-77
2023/04/07 07:38:06;;;;;;;6.97;4.72;;;9.90;57.60;;;;;;5092643;28;20028;-77
2023/04/07 07:40:32;;;;;;;8.25;4.15;;;9.80;56.60;;;;;;5093116;28;20048;-78
2023/04/07 07:42:57;;;;;;;4.97;2.90;;;9.90;56.10;;;;;;5092700;28;20017;-76
2023/04/07 07:45:23;;;;;;;4.55;3.13;;;9.90;56.00;;;;;;5092780;28;20433;-78
2023/04/07 07:47:49;;;;;;;4.78;3.25;;;10.00;56.10;;;;;;5092748;28;20020;-75
2023/04/07 07:50:14;;;;;;;6.80;3.28;;;10.20;55.90;;;;;;5095885;28;20038;-76
2023/04/07 07:52:40;;;;;;;9.07;3.65;;;10.30;55.70;;;;;;5096615;28;20024;-75
2023/04/07 07:55:06;;;;;;;6.95;3.80;;;10.40;55.00;;;;;;5096397;28;20028;-75
2023/04/07 07:57:32;;;;;;;24.00;3.10;;;10.50;54.70;;;;;;5096213;28;20050;-75
2023/04/07 07:59:58;;;;;;;5.97;3.42;;;10.50;63.00;;;;;;5096948;28;20031;-75
2023/04/07 08:02:29;;;;;;;10.13;3.50;;;10.90;63.50;;;;;;5096346;28;20024;-73
2023/04/07 08:04:55;;;;;;;5.03;3.20;;;11.30;62.00;;;;;;5096408;28;20027;-75
2023/04/07 08:07:21;;;;;;;6.38;3.70;;;11.70;57.60;;;;;;5096432;28;20020;-73
2023/04/07 08:09:46;;;;;;;7.15;3.85;;;12.20;54.80;;;;;;5097274;28;20077;-74
2023/04/07 08:12:12;;;;;;;5.88;3.20;;;12.40;52.40;;;;;;5096130;28;20381;-75
2023/04/07 08:14:38;;;;;;;6.00;3.38;;;12.60;51.80;;;;;;5096033;28;20032;-75
2023/04/07 08:17:03;;;;;;;10.15;3.15;;;12.80;49.80;;;;;;5096123;28;20046;-75
2023/04/07 08:19:29;;;;;;;6.80;3.13;;;13.00;49.70;;;;;;5096994;28;20024;-75
2023/04/07 08:21:54;;;;;;;6.70;3.13;;;13.20;47.90;;;;;;5096029;28;20028;-74
2023/04/07 08:24:20;;;;;;;5.88;3.28;;;13.20;47.70;;;;;;5095834;28;20089;-74
2023/04/07 08:26:46;;;;;;;5.88;3.28;;;13.40;47.70;;;;;;5095924;28;20073;-75
2023/04/07 08:29:11;;;;;;;7.63;3.80;;;13.50;46.50;;;;;;5096552;28;20346;-75
2023/04/07 08:31:37;;;;;;;5.80;3.80;;;13.20;45.60;;;;;;5095648;28;20031;-73
2023/04/07 08:34:02;;;;;;;8.70;3.95;;;12.60;48.00;;;;;;5095721;28;20361;-74
2023/04/07 08:36:28;;;;;;;8.13;3.63;;;12.50;48.70;;;;;;5095871;28;20089;-75
2023/04/07 08:38:54;;;;;;;9.77;3.42;;;12.50;48.80;;;;;;5096224;28;20020;-74
2023/04/07 08:41:47;;;;;;;5.72;3.70;;;12.10;49.40;;;;;;5096185;28;20020;-76
2023/04/07 08:44:14;;;;;;;7.70;3.22;;;12.20;49.70;;;;;;5094406;28;20488;-76
2023/04/07 08:46:40;;;;;;;5.60;3.33;;;12.30;49.60;;;;;;5101649;28;20028;-76
2023/04/07 08:49:12;;;;;;;9.50;3.70;;;12.50;49.70;;;;;;5096594;28;20495;-76
2023/04/07 08:51:48;;;;;;;7.40;3.92;;;12.40;49.20;;;;;;5094404;28;20038;-74
2023/04/07 08:54:17;;;;;;;7.45;4.03;;;12.40;51.10;;;;;;5095485;28;20040;-74
2023/04/07 08:56:43;;;;;;;9.07;4.03;;;12.30;50.20;;;;;;5095374;28;20391;-75
2023/04/07 08:59:11;;;;;;;7.00;4.10;;;12.30;50.10;;;;;;5096150;28;20020;-76
2023/04/07 09:01:38;;;;;;;6.18;3.70;;;12.50;49.50;;;;;;5094272;28;20066;-74
2023/04/07 09:04:06;;;;;;;5.55;3.60;;;12.60;49.40;;;;;;5093839;28;20024;-75
2023/04/07 09:06:32;;;;;;;8.88;5.32;;;12.60;48.80;;;;;;5095102;28;20051;-74
2023/04/07 09:08:59;;;;;;;8.50;4.07;;;12.40;50.00;;;;;;5095502;28;20036;-74
2023/04/07 09:11:26;;;;;;;7.13;3.92;;;12.20;50.00;;;;;;5095244;28;20024;-74
2023/04/07 09:13:53;;;;;;;4.22;3.10;;;12.00;50.60;;;;;;5094664;28;20435;-74
2023/04/07 09:16:19;;;;;;;7.30;3.25;;;12.10;50.40;;;;;;5094957;28;20442;-74
2023/04/07 09:18:45;;;;;;;9.15;3.10;;;12.00;49.40;;;;;;5094169;28;20455;-74
2023/04/07 09:21:10;;;;;;;7.85;2.53;;;11.80;50.30;;;;;;5095657;28;20107;-75
2023/04/07 09:23:38;;;;;;;5.30;2.60;;;11.90;50.00;;;;;;5095038;28;20073;-76
2023/04/07 09:26:21;;;;;;;6.60;2.53;;;12.10;49.50;;;;;;5094923;28;20555;-74
2023/04/07 09:28:49;;;;;;;4.63;2.50;;;12.40;48.80;;;;;;5094791;28;20020;-74
2023/04/07 09:31:15;;;;;;;7.68;2.67;;;12.50;48.20;;;;;;5095276;28;20020;-74
2023/04/07 09:33:41;;;;;;;7.88;3.03;;;12.70;48.10;;;;;;5094617;28;20101;-76
2023/04/07 09:36:07;;;;;;;6.07;3.30;;;12.90;47.10;;;;;;5094699;28;20043;-77
2023/04/07 09:38:35;;;;;;;5.78;2.55;;;12.70;46.60;;;;;;5094698;28;20457;-76
2023/04/07 09:43:41;;;;;;;6.43;2.58;;;13.00;47.00;;;;;;4798819;22;20603;-75
2023/04/07 09:46:15;;;;;;;5.38;2.95;;;13.40;47.00;;;;;;5074044;28;20399;-75
2023/04/07 09:48:42;;;;;;;6.65;2.72;;;13.60;45.80;;;;;;5074290;28;20055;-75
2023/04/07 09:51:17;;;;;;;6.38;2.65;;;13.80;44.30;;;;;;5074107;28;20041;-75
2023/04/07 09:53:50;;;;;;;6.60;2.33;;;14.10;43.60;;;;;;5073890;28;20049;-74
2023/04/07 09:56:21;;;;;;;7.28;2.28;;;14.60;42.20;;;;;;5074079;28;20025;-76
2023/04/07 09:58:47;;;;;;;8.38;2.55;;;14.80;39.60;;;;;;5073995;28;20120;-76
2023/04/07 10:01:18;;;;;;;6.60;2.67;;;14.60;40.20;;;;;;5073826;28;20024;-74
2023/04/07 10:03:45;;;;;;;5.60;2.35;;;14.50;40.30;;;;;;5073811;28;20024;-76
2023/04/07 10:06:11;;;;;;;8.73;3.08;;;14.70;41.70;;;;;;5073810;28;20032;-76
2023/04/07 10:08:40;;;;;;;4.90;2.33;;;14.80;41.50;;;;;;5073529;28;20128;-77
2023/04/07 10:11:06;;;;;;;6.88;2.67;;;14.60;40.80;;;;;;5073278;28;20048;-75
2023/04/07 10:13:34;;;;;;;7.82;2.90;;;14.40;41.40;;;;;;5073458;28;20060;-75
2023/04/07 10:16:06;;;;;;;4.85;2.92;;;14.20;42.20;;;;;;5073483;28;20092;-76
2023/04/07 10:18:33;;;;;;;8.45;3.47;;;14.20;42.60;;;;;;5073480;28;20021;-74
2023/04/07 10:21:05;;;;;;;6.03;3.38;;;13.80;43.80;;;;;;5073418;28;20357;-74
2023/04/07 10:23:43;;;;;;;7.65;2.97;;;13.60;44.10;;;;;;5073470;28;20025;-75
2023/04/07 10:26:09;;;;;;;3.30;2.00;;;13.30;43.30;;;;;;5073268;28;20020;-75
2023/04/07 10:28:40;;;;;;;6.55;2.20;;;13.10;43.60;;;;;;5073438;28;20064;-75
2023/04/07 10:31:06;;;;;;;4.25;1.98;;;12.90;43.50;;;;;;5073188;28;20046;-76
2023/04/07 10:33:51;;;;;;;4.93;1.83;;;13.00;44.00;;;;;;5072939;28;20039;-77
2023/04/07 10:36:19;;;;;;;3.57;1.67;;;13.10;44.30;;;;;;5073210;28;20472;-75
2023/04/07 10:39:06;;;;;;;4.00;1.85;;;13.30;43.70;;;;;;5073268;28;20047;-76
2023/04/07 10:41:35;;;;;;;6.82;2.10;;;13.00;43.10;;;;;;5072913;28;20429;-77
2023/04/07 10:44:02;;;;;;;8.85;2.95;;;13.00;45.10;;;;;;5073022;28;20141;-76
2023/04/07 10:46:47;;;;;;;5.25;2.47;;;12.80;46.70;;;;;;5073181;28;20475;-76
2023/04/07 10:49:13;;;;;;;10.90;5.10;;;12.90;46.20;;;;;;5073068;28;20021;-74
2023/04/07 10:51:39;;;;;;;7.95;2.05;;;13.00;45.60;;;;;;5073130;28;20028;-75
2023/04/07 10:54:21;;;;;;;3.65;1.67;;;13.00;46.10;;;;;;5072815;28;20033;-76
2023/04/07 10:57:02;;;;;;;5.95;2.30;;;12.70;46.70;;;;;;5073200;28;20043;-75
2023/04/07 10:59:28;;;;;;;6.80;2.33;;;12.60;47.00;;;;;;5072972;28;20032;-76
2023/04/07 11:02:12;;;;;;;4.90;2.00;;;12.60;45.70;;;;;;5073091;28;20017;-76
2023/04/07 11:04:40;;;;;;;7.05;1.88;;;12.50;45.70;;;;;;5072837;28;20028;-76
2023/04/07 11:07:06;;;;;;;9.05;2.60;;;12.50;44.90;;;;;;5072968;28;20129;-75
2023/04/07 11:09:31;;;;;;;4.88;2.00;;;12.60;44.60;;;;;;5072919;28;20107;-76
2023/04/07 11:11:57;;;;;;;10.80;2.65;;;12.60;45.60;;;;;;5072806;28;20096;-76
2023/04/07 11:14:26;;;;;;;3.38;2.00;;;12.50;46.30;;;;;;5072912;28;20498;-77
2023/04/07 11:16:52;;;;;;;5.40;2.25;;;12.60;46.40;;;;;;5072862;28;20024;-77
2023/04/07 11:19:18;;;;;;;4.78;2.03;;;12.70;46.00;;;;;;5072566;28;20126;-75
2023/04/07 11:21:44;;;;;;;4.43;2.03;;;12.70;45.30;;;;;;5073058;28;20488;-75
2023/04/07 11:24:10;;;;;;;4.68;2.42;;;12.70;45.40;;;;;;5074690;28;20043;-77
2023/04/07 11:26:41;;;;;;;4.65;2.20;;;12.70;45.20;;;;;;5076823;28;20433;-77
2023/04/07 11:29:07;;;;;;;5.70;2.15;;;12.60;44.60;;;;;;5076765;28;20032;-77
2023/04/07 11:31:33;;;;;;;5.53;2.08;;;12.60;45.30;;;;;;5076791;28;20024;-76
2023/04/07 11:34:03;;;;;;;7.05;2.72;;;12.70;45.70;;;;;;5076310;28;20040;-75
2023/04/07 11:36:38;;;;;;;6.93;2.70;;;12.60;47.70;;;;;;5058454;28;20440;-76
2023/04/07 11:39:04;;;;;;;5.60;2.58;;;12.60;48.90;;;;;;5073921;28;20021;-77
2023/04/07 11:41:31;;;;;;;5.47;2.65;;;12.60;49.60;;;;;;5075324;28;20514;-78
2023/04/07 11:44:11;;;;;;;6.43;3.30;;;12.70;49.90;;;;;;5056380;28;20024;-78
2023/04/07 11:46:53;;;;;;;9.70;3.30;;;12.70;50.00;;;;;;5067209;28;20028;-74
2023/04/07 11:49:18;;;;;;;5.05;2.80;;;12.70;49.90;;;;;;5075318;28;20020;-73
2023/04/07 11:51:44;;;;;;;7.05;2.58;;;12.60;50.20;;;;;;5074727;28;20534;-75
2023/04/07 11:54:10;;;;;;;6.47;3.08;;;12.50;50.10;;;;;;5075019;28;20545;-77
2023/04/07 11:56:45;;;;;;;6.40;2.75;;;12.40;50.70;;;;;;5075081;28;20482;-79
2023/04/07 11:59:22;;;;;;;4.00;2.47;;;12.60;50.60;;;;;;5075064;28;20115;-76
2023/04/07 12:01:49;;;;;;;7.13;3.20;;;12.80;50.70;;;;;;5074921;28;20120;-80
2023/04/07 12:04:16;;;;;;;7.80;3.38;;;12.80;50.90;;;;;;5072397;28;20027;-78
2023/04/07 12:06:42;;;;;;;7.50;2.80;;;12.80;50.90;;;;;;5074892;28;20017;-77
2023/04/07 12:09:24;;;;;;;6.22;2.92;;;12.80;50.00;;;;;;5076172;28;20421;-78
2023/04/07 12:11:50;;;;;;;5.82;2.80;;;12.60;50.20;;;;;;5076015;28;20531;-78
2023/04/07 12:14:16;;;;;;;6.80;2.75;;;12.70;49.70;;;;;;5076122;28;20064;-78
2023/04/07 12:16:41;;;;;;;8.25;2.97;;;12.60;50.10;;;;;;5074861;28;20030;-75
2023/04/07 12:19:07;;;;;;;6.97;2.72;;;12.60;50.00;;;;;;5075215;28;20021;-74
2023/04/07 12:21:33;;;;;;;5.18;2.45;;;12.70;49.80;;;;;;5074934;28;20396;-74
2023/04/07 12:23:58;;;;;;;6.90;2.85;;;12.80;49.40;;;;;;5074689;28;20032;-75
2023/04/07 12:26:24;;;;;;;4.80;2.47;;;12.90;49.80;;;;;;5074580;28;20067;-78
2023/04/07 12:28:50;;;;;;;4.43;2.22;;;13.00;49.70;;;;;;5074653;28;20024;-77
2023/04/07 12:31:16;;;;;;;6.35;3.22;;;13.10;49.20;;;;;;5074524;28;20099;-74
2023/04/07 12:33:42;;;;;;;6.07;2.83;;;13.10;49.10;;;;;;5080213;28;20020;-73
2023/04/07 12:36:07;;;;;;;4.35;2.47;;;13.00;48.80;;;;;;5071285;28;20392;-73
2023/04/07 12:38:33;;;;;;;5.32;2.63;;;12.90;48.90;;;;;;5072910;28;20025;-74
2023/04/07 12:41:02;;;;;;;5.03;2.47;;;12.90;48.80;;;;;;5074332;28;20025;-74
2023/04/07 12:43:29;;;;;;;4.47;2.20;;;12.60;50.10;;;;;;5074267;28;20533;-73
2023/04/07 12:45:56;;;;;;;7.07;2.80;;;12.50;51.00;;;;;;5074206;28;20048;-73
2023/04/07 12:48:22;;;;;;;5.60;2.45;;;12.30;51.80;;;;;;5078789;28;20040;-74